sensor_id;sensor_type;location;lat;lon;timestamp;pressure;altitude;pressure_sealevel;temperature;humidity
4570;BME280;2297;51.442;6.996;2023-07-24T00:00:15;99318.41;;;19.37;67.81
4570;BME280;2297;51.442;6.996;2023-07-24T00:02:42;99301.38;;;19.38;67.73
4570;BME280;2297;51.442;6.996;2023-07-24T00:05:10;99303.03;;;19.52;67.17
4570;BME280;2297;51.442;6.996;2023-07-24T00:07:36;99300.16;;;19.42;67.63
4570;BME280;2297;51.442;6.996;2023-07-24T00:10:04;99296.00;;;19.38;68.04
4570;BME280;2297;51.442;6.996;2023-07-24T00:12:30;99294.53;;;19.34;68.06
4570;BME280;2297;51.442;6.996;2023-07-24T00:14:57;99288.06;;;19.50;67.80
4570;BME280;2297;51.442;6.996;2023-07-24T00:17:24;99287.66;;;19.43;67.79
4570;BME280;2297;51.442;6.996;2023-07-24T00:19:50;99285.91;;;19.66;67.31
4570;BME280;2297;51.442;6.996;2023-07-24T00:22:18;99271.44;;;19.69;67.34
4570;BME280;2297;51.442;6.996;2023-07-24T00:24:45;99278.66;;;19.79;67.03
4570;BME280;2297;51.442;6.996;2023-07-24T00:27:12;99275.25;;;19.77;67.14
4570;BME280;2297;51.442;6.996;2023-07-24T00:29:39;99275.13;;;19.68;67.44
4570;BME280;2297;51.442;6.996;2023-07-24T00:32:06;99267.59;;;19.49;68.26
4570;BME280;2297;51.442;6.996;2023-07-24T00:34:33;99270.50;;;19.45;68.34
4570;BME280;2297;51.442;6.996;2023-07-24T00:36:59;99264.56;;;19.29;69.03
4570;BME280;2297;51.442;6.996;2023-07-24T00:39:27;99265.44;;;19.30;69.16
4570;BME280;2297;51.442;6.996;2023-07-24T00:41:55;99263.22;;;19.48;68.30
4570;BME280;2297;51.442;6.996;2023-07-24T00:44:21;99269.06;;;19.53;67.91
4570;BME280;2297;51.442;6.996;2023-07-24T00:46:48;99268.66;;;19.35;68.30
4570;BME280;2297;51.442;6.996;2023-07-24T00:49:16;99269.47;;;19.59;67.85
4570;BME280;2297;51.442;6.996;2023-07-24T00:51:43;99263.22;;;19.48;68.18
4570;BME280;2297;51.442;6.996;2023-07-24T00:54:11;99254.91;;;19.39;68.10
4570;BME280;2297;51.442;6.996;2023-07-24T00:56:39;99261.13;;;19.40;68.24
4570;BME280;2297;51.442;6.996;2023-07-24T00:59:06;99254.38;;;19.34;67.95
4570;BME280;2297;51.442;6.996;2023-07-24T01:01:33;99252.19;;;19.28;68.38
4570;BME280;2297;51.442;6.996;2023-07-24T01:04:01;99248.75;;;19.26;68.40
4570;BME280;2297;51.442;6.996;2023-07-24T01:06:29;99252.59;;;19.35;68.12
4570;BME280;2297;51.442;6.996;2023-07-24T01:08:55;99243.16;;;19.29;68.44
4570;BME280;2297;51.442;6.996;2023-07-24T01:11:49;99237.38;;;19.35;68.15
4570;BME280;2297;51.442;6.996;2023-07-24T01:14:21;99230.16;;;19.24;68.51
4570;BME280;2297;51.442;6.996;2023-07-24T01:16:50;99237.22;;;19.12;69.10
4570;BME280;2297;51.442;6.996;2023-07-24T01:19:26;99232.31;;;19.19;68.73
4570;BME280;2297;51.442;6.996;2023-07-24T01:22:02;99228.81;;;19.30;68.39
4570;BME280;2297;51.442;6.996;2023-07-24T01:24:39;99228.44;;;19.10;68.79
4570;BME280;2297;51.442;6.996;2023-07-24T01:27:10;99213.59;;;19.06;69.04
4570;BME280;2297;51.442;6.996;2023-07-24T01:29:37;99208.75;;;19.11;69.01
4570;BME280;2297;51.442;6.996;2023-07-24T01:35:13;99204.06;;;19.02;69.35
4570;BME280;2297;51.442;6.996;2023-07-24T01:37:41;99196.22;;;18.88;69.51
4570;BME280;2297;51.442;6.996;2023-07-24T01:40:10;99190.84;;;19.25;68.11
4570;BME280;2297;51.442;6.996;2023-07-24T01:42:39;99184.78;;;19.34;67.61
4570;BME280;2297;51.442;6.996;2023-07-24T01:45:07;99184.06;;;19.32;67.63
4570;BME280;2297;51.442;6.996;2023-07-24T01:47:33;99180.28;;;19.10;68.22
4570;BME280;2297;51.442;6.996;2023-07-24T01:50:00;99176.38;;;19.27;67.38
4570;BME280;2297;51.442;6.996;2023-07-24T01:52:27;99175.69;;;18.88;68.40
4570;BME280;2297;51.442;6.996;2023-07-24T01:54:54;99171.91;;;19.28;67.00
4570;BME280;2297;51.442;6.996;2023-07-24T01:57:20;99167.66;;;19.37;66.82
4570;BME280;2297;51.442;6.996;2023-07-24T01:59:48;99163.00;;;19.27;67.08
4570;BME280;2297;51.442;6.996;2023-07-24T02:02:15;99165.78;;;19.26;67.02
4570;BME280;2297;51.442;6.996;2023-07-24T02:04:42;99154.56;;;19.21;67.28
4570;BME280;2297;51.442;6.996;2023-07-24T02:07:08;99155.84;;;19.28;67.20
4570;BME280;2297;51.442;6.996;2023-07-24T02:09:35;99165.34;;;19.43;66.53
4570;BME280;2297;51.442;6.996;2023-07-24T02:12:02;99169.41;;;19.49;66.42
4570;BME280;2297;51.442;6.996;2023-07-24T02:14:29;99155.47;;;19.33;66.99
4570;BME280;2297;51.442;6.996;2023-07-24T02:16:57;99158.84;;;19.23;67.24
4570;BME280;2297;51.442;6.996;2023-07-24T02:19:23;99159.78;;;19.47;66.53
4570;BME280;2297;51.442;6.996;2023-07-24T02:21:50;99152.94;;;19.42;66.54
4570;BME280;2297;51.442;6.996;2023-07-24T02:24:16;99159.56;;;19.50;66.36
4570;BME280;2297;51.442;6.996;2023-07-24T02:26:43;99147.13;;;19.49;66.47
4570;BME280;2297;51.442;6.996;2023-07-24T02:29:10;99144.44;;;19.49;66.27
4570;BME280;2297;51.442;6.996;2023-07-24T02:31:36;99139.69;;;19.17;67.72
4570;BME280;2297;51.442;6.996;2023-07-24T02:34:04;99129.53;;;19.22;67.58
4570;BME280;2297;51.442;6.996;2023-07-24T02:36:31;99138.91;;;19.27;67.29
4570;BME280;2297;51.442;6.996;2023-07-24T02:38:57;99129.97;;;19.40;66.87
4570;BME280;2297;51.442;6.996;2023-07-24T02:41:24;99130.03;;;19.27;67.20
4570;BME280;2297;51.442;6.996;2023-07-24T02:43:51;99130.25;;;19.24;67.32
4570;BME280;2297;51.442;6.996;2023-07-24T02:46:17;99143.41;;;19.27;67.03
4570;BME280;2297;51.442;6.996;2023-07-24T02:48:44;99134.81;;;19.35;66.96
4570;BME280;2297;51.442;6.996;2023-07-24T02:51:12;99138.84;;;19.40;66.82
4570;BME280;2297;51.442;6.996;2023-07-24T02:53:39;99146.88;;;19.52;66.29
4570;BME280;2297;51.442;6.996;2023-07-24T02:56:05;99137.88;;;19.53;66.15
4570;BME280;2297;51.442;6.996;2023-07-24T02:58:32;99135.66;;;19.35;66.67
4570;BME280;2297;51.442;6.996;2023-07-24T03:01:03;99124.94;;;19.35;66.66
4570;BME280;2297;51.442;6.996;2023-07-24T03:03:31;99115.22;;;19.34;67.11
4570;BME280;2297;51.442;6.996;2023-07-24T03:05:57;99121.19;;;19.38;66.73
4570;BME280;2297;51.442;6.996;2023-07-24T03:08:26;99131.16;;;19.36;66.90
4570;BME280;2297;51.442;6.996;2023-07-24T03:10:52;99119.56;;;19.24;67.56
4570;BME280;2297;51.442;6.996;2023-07-24T03:13:19;99117.31;;;19.42;67.23
4570;BME280;2297;51.442;6.996;2023-07-24T03:15:52;99121.34;;;19.59;66.60
4570;BME280;2297;51.442;6.996;2023-07-24T03:18:19;99116.72;;;19.50;67.19
4570;BME280;2297;51.442;6.996;2023-07-24T03:20:46;99115.75;;;19.51;67.11
4570;BME280;2297;51.442;6.996;2023-07-24T03:23:12;99125.19;;;19.32;67.68
4570;BME280;2297;51.442;6.996;2023-07-24T03:25:40;99118.88;;;19.44;67.60
4570;BME280;2297;51.442;6.996;2023-07-24T03:28:07;99116.75;;;19.01;69.20
4570;BME280;2297;51.442;6.996;2023-07-24T03:30:34;99106.06;;;19.01;69.19
4570;BME280;2297;51.442;6.996;2023-07-24T03:33:01;99100.31;;;18.94;69.36
4570;BME280;2297;51.442;6.996;2023-07-24T03:35:28;99106.06;;;19.01;69.14
4570;BME280;2297;51.442;6.996;2023-07-24T03:37:54;99097.81;;;19.04;69.24
4570;BME280;2297;51.442;6.996;2023-07-24T03:40:21;99093.34;;;19.40;68.02
4570;BME280;2297;51.442;6.996;2023-07-24T03:42:49;99095.41;;;19.48;67.17
4570;BME280;2297;51.442;6.996;2023-07-24T03:45:16;99088.94;;;19.39;67.48
4570;BME280;2297;51.442;6.996;2023-07-24T03:47:42;99082.50;;;19.31;68.02
4570;BME280;2297;51.442;6.996;2023-07-24T03:50:09;99071.50;;;19.22;68.18
4570;BME280;2297;51.442;6.996;2023-07-24T03:52:36;99072.50;;;19.33;67.83
4570;BME280;2297;51.442;6.996;2023-07-24T03:55:03;99069.16;;;19.18;68.41
4570;BME280;2297;51.442;6.996;2023-07-24T03:57:30;99072.63;;;19.31;67.90
4570;BME280;2297;51.442;6.996;2023-07-24T03:59:58;99074.72;;;19.15;67.91
4570;BME280;2297;51.442;6.996;2023-07-24T04:02:24;99067.03;;;19.23;68.11
4570;BME280;2297;51.442;6.996;2023-07-24T04:04:51;99069.56;;;19.24;67.92
4570;BME280;2297;51.442;6.996;2023-07-24T04:07:18;99068.25;;;19.30;67.49
4570;BME280;2297;51.442;6.996;2023-07-24T04:09:44;99072.63;;;19.42;67.34
4570;BME280;2297;51.442;6.996;2023-07-24T04:12:11;99057.34;;;19.56;67.02
4570;BME280;2297;51.442;6.996;2023-07-24T04:14:38;99061.00;;;19.55;66.69
4570;BME280;2297;51.442;6.996;2023-07-24T04:17:06;99065.63;;;19.64;66.28
4570;BME280;2297;51.442;6.996;2023-07-24T04:19:32;99061.19;;;19.29;67.36
4570;BME280;2297;51.442;6.996;2023-07-24T04:21:59;99061.34;;;19.03;68.49
4570;BME280;2297;51.442;6.996;2023-07-24T04:24:26;99076.88;;;18.98;68.89
4570;BME280;2297;51.442;6.996;2023-07-24T04:26:52;99079.31;;;19.01;68.64
4570;BME280;2297;51.442;6.996;2023-07-24T04:29:19;99078.31;;;18.91;69.07
4570;BME280;2297;51.442;6.996;2023-07-24T04:31:49;99070.50;;;19.12;68.54
4570;BME280;2297;51.442;6.996;2023-07-24T04:34:17;99076.31;;;19.06;68.75
4570;BME280;2297;51.442;6.996;2023-07-24T04:36:43;99073.75;;;18.80;69.73
4570;BME280;2297;51.442;6.996;2023-07-24T04:39:10;99067.38;;;18.94;69.34
4570;BME280;2297;51.442;6.996;2023-07-24T04:41:37;99061.00;;;18.84;69.33
4570;BME280;2297;51.442;6.996;2023-07-24T04:44:03;99060.38;;;18.80;69.53
4570;BME280;2297;51.442;6.996;2023-07-24T04:46:30;99059.41;;;19.05;68.72
4570;BME280;2297;51.442;6.996;2023-07-24T04:48:56;99080.00;;;19.16;68.71
4570;BME280;2297;51.442;6.996;2023-07-24T04:51:24;99064.78;;;18.57;70.45
4570;BME280;2297;51.442;6.996;2023-07-24T04:53:51;99066.41;;;18.71;70.07
4570;BME280;2297;51.442;6.996;2023-07-24T04:56:18;99067.66;;;19.02;69.39
4570;BME280;2297;51.442;6.996;2023-07-24T04:58:45;99066.03;;;18.88;69.67
4570;BME280;2297;51.442;6.996;2023-07-24T05:01:11;99073.47;;;18.96;69.55
4570;BME280;2297;51.442;6.996;2023-07-24T05:03:38;99058.53;;;19.05;69.49
4570;BME280;2297;51.442;6.996;2023-07-24T05:06:04;99054.31;;;19.14;69.05
4570;BME280;2297;51.442;6.996;2023-07-24T05:08:32;99062.84;;;19.19;68.67
4570;BME280;2297;51.442;6.996;2023-07-24T05:10:59;99066.47;;;18.82;70.02
4570;BME280;2297;51.442;6.996;2023-07-24T05:13:26;99069.63;;;19.11;68.94
4570;BME280;2297;51.442;6.996;2023-07-24T05:15:53;99072.03;;;19.03;69.27
4570;BME280;2297;51.442;6.996;2023-07-24T05:18:20;99087.22;;;19.27;68.74
4570;BME280;2297;51.442;6.996;2023-07-24T05:20:48;99090.41;;;19.32;68.52
4570;BME280;2297;51.442;6.996;2023-07-24T05:23:16;99099.41;;;19.31;68.49
4570;BME280;2297;51.442;6.996;2023-07-24T05:25:44;99097.56;;;19.32;68.57
4570;BME280;2297;51.442;6.996;2023-07-24T05:28:11;99090.69;;;18.92;69.64
4570;BME280;2297;51.442;6.996;2023-07-24T05:30:38;99099.75;;;19.02;69.22
4570;BME280;2297;51.442;6.996;2023-07-24T05:33:04;99094.69;;;18.86;69.85
4570;BME280;2297;51.442;6.996;2023-07-24T05:35:31;99100.25;;;19.07;69.22
4570;BME280;2297;51.442;6.996;2023-07-24T05:37:58;99103.56;;;19.11;69.43
4570;BME280;2297;51.442;6.996;2023-07-24T05:40:24;99104.41;;;19.11;68.90
4570;BME280;2297;51.442;6.996;2023-07-24T05:42:52;99108.56;;;19.16;68.92
4570;BME280;2297;51.442;6.996;2023-07-24T05:45:19;99102.34;;;19.15;69.41
4570;BME280;2297;51.442;6.996;2023-07-24T05:47:46;99106.38;;;19.09;69.38
4570;BME280;2297;51.442;6.996;2023-07-24T05:50:12;99121.13;;;18.91;70.25
4570;BME280;2297;51.442;6.996;2023-07-24T05:52:39;99107.78;;;19.02;70.07
4570;BME280;2297;51.442;6.996;2023-07-24T05:55:07;99105.53;;;18.85;70.56
4570;BME280;2297;51.442;6.996;2023-07-24T05:57:53;99114.75;;;18.81;70.49
4570;BME280;2297;51.442;6.996;2023-07-24T06:00:20;99113.63;;;19.07;69.84
4570;BME280;2297;51.442;6.996;2023-07-24T06:02:47;99108.19;;;18.85;70.59
4570;BME280;2297;51.442;6.996;2023-07-24T06:05:13;99107.63;;;18.68;71.23
4570;BME280;2297;51.442;6.996;2023-07-24T06:07:40;99105.34;;;18.51;71.90
4570;BME280;2297;51.442;6.996;2023-07-24T06:10:07;99094.59;;;18.88;70.78
4570;BME280;2297;51.442;6.996;2023-07-24T06:12:34;99100.34;;;18.70;71.41
4570;BME280;2297;51.442;6.996;2023-07-24T06:15:02;99102.91;;;18.96;69.90
4570;BME280;2297;51.442;6.996;2023-07-24T06:17:29;99115.47;;;18.83;70.75
4570;BME280;2297;51.442;6.996;2023-07-24T06:19:56;99116.50;;;18.93;70.38
4570;BME280;2297;51.442;6.996;2023-07-24T06:22:23;99115.72;;;19.15;69.54
4570;BME280;2297;51.442;6.996;2023-07-24T06:24:50;99119.59;;;19.35;68.84
4570;BME280;2297;51.442;6.996;2023-07-24T06:27:16;99122.47;;;19.21;68.84
4570;BME280;2297;51.442;6.996;2023-07-24T06:29:43;99121.66;;;19.07;68.14
4570;BME280;2297;51.442;6.996;2023-07-24T06:32:11;99116.56;;;19.04;68.98
4570;BME280;2297;51.442;6.996;2023-07-24T06:34:38;99106.78;;;19.27;68.28
4570;BME280;2297;51.442;6.996;2023-07-24T06:37:04;99115.72;;;19.15;68.50
4570;BME280;2297;51.442;6.996;2023-07-24T06:39:31;99111.75;;;19.21;67.92
4570;BME280;2297;51.442;6.996;2023-07-24T06:41:58;99104.53;;;19.45;67.28
4570;BME280;2297;51.442;6.996;2023-07-24T06:44:25;99106.00;;;19.50;67.27
4570;BME280;2297;51.442;6.996;2023-07-24T06:46:52;99102.84;;;19.44;67.18
4570;BME280;2297;51.442;6.996;2023-07-24T06:49:20;99103.34;;;19.72;66.36
4570;BME280;2297;51.442;6.996;2023-07-24T06:51:46;99109.56;;;19.61;66.39
4570;BME280;2297;51.442;6.996;2023-07-24T06:54:13;99114.44;;;19.68;66.27
4570;BME280;2297;51.442;6.996;2023-07-24T06:56:40;99105.06;;;19.85;66.03
4570;BME280;2297;51.442;6.996;2023-07-24T06:59:06;99119.06;;;19.66;66.18
4570;BME280;2297;51.442;6.996;2023-07-24T07:01:33;99100.22;;;19.78;66.08
4570;BME280;2297;51.442;6.996;2023-07-24T07:03:59;99108.72;;;19.72;65.90
4570;BME280;2297;51.442;6.996;2023-07-24T07:06:28;99101.66;;;19.83;65.42
4570;BME280;2297;51.442;6.996;2023-07-24T07:08:54;99105.94;;;19.85;65.12
4570;BME280;2297;51.442;6.996;2023-07-24T07:11:21;99124.69;;;20.31;64.48
4570;BME280;2297;51.442;6.996;2023-07-24T07:13:47;99107.75;;;19.73;65.58
4570;BME280;2297;51.442;6.996;2023-07-24T07:16:14;99111.28;;;20.19;64.50
4570;BME280;2297;51.442;6.996;2023-07-24T07:18:42;99119.19;;;19.64;65.79
4570;BME280;2297;51.442;6.996;2023-07-24T07:21:08;99106.19;;;20.16;64.51
4570;BME280;2297;51.442;6.996;2023-07-24T07:23:36;99107.31;;;20.02;64.58
4570;BME280;2297;51.442;6.996;2023-07-24T07:26:03;99103.38;;;20.18;64.14
4570;BME280;2297;51.442;6.996;2023-07-24T07:28:29;99099.50;;;20.10;63.93
4570;BME280;2297;51.442;6.996;2023-07-24T07:30:56;99114.56;;;19.89;64.10
4570;BME280;2297;51.442;6.996;2023-07-24T07:33:23;99110.56;;;20.06;63.88
4570;BME280;2297;51.442;6.996;2023-07-24T07:35:50;99113.16;;;19.96;64.03
4570;BME280;2297;51.442;6.996;2023-07-24T07:38:16;99112.41;;;19.94;64.10
4570;BME280;2297;51.442;6.996;2023-07-24T07:40:44;99104.13;;;20.08;63.48
4570;BME280;2297;51.442;6.996;2023-07-24T07:43:11;99106.78;;;20.31;62.83
4570;BME280;2297;51.442;6.996;2023-07-24T07:45:38;99103.78;;;20.13;63.53
4570;BME280;2297;51.442;6.996;2023-07-24T07:48:05;99099.84;;;20.28;62.92
4570;BME280;2297;51.442;6.996;2023-07-24T07:50:31;99082.91;;;20.39;62.71
4570;BME280;2297;51.442;6.996;2023-07-24T07:52:58;99093.91;;;20.25;62.52
4570;BME280;2297;51.442;6.996;2023-07-24T07:55:25;99090.59;;;20.33;62.63
4570;BME280;2297;51.442;6.996;2023-07-24T07:57:53;99091.94;;;20.27;62.61
4570;BME280;2297;51.442;6.996;2023-07-24T08:00:20;99093.91;;;20.02;63.54
4570;BME280;2297;51.442;6.996;2023-07-24T08:02:47;99091.44;;;20.22;62.98
4570;BME280;2297;51.442;6.996;2023-07-24T08:05:13;99093.41;;;20.20;63.24
4570;BME280;2297;51.442;6.996;2023-07-24T08:07:41;99089.00;;;20.07;63.39
4570;BME280;2297;51.442;6.996;2023-07-24T08:10:08;99096.09;;;19.97;63.66
4570;BME280;2297;51.442;6.996;2023-07-24T08:12:35;99091.94;;;20.16;63.97
4570;BME280;2297;51.442;6.996;2023-07-24T08:15:03;99089.84;;;20.19;64.49
4570;BME280;2297;51.442;6.996;2023-07-24T08:17:30;99100.31;;;20.34;63.84
4570;BME280;2297;51.442;6.996;2023-07-24T08:19:57;99084.34;;;20.43;64.12
4570;BME280;2297;51.442;6.996;2023-07-24T08:22:23;99094.25;;;20.20;66.45
4570;BME280;2297;51.442;6.996;2023-07-24T08:24:50;99095.09;;;20.43;65.77
4570;BME280;2297;51.442;6.996;2023-07-24T08:27:17;99097.53;;;20.24;66.63
4570;BME280;2297;51.442;6.996;2023-07-24T08:29:43;99084.59;;;20.40;66.23
4570;BME280;2297;51.442;6.996;2023-07-24T08:32:12;99076.53;;;20.52;66.43
4570;BME280;2297;51.442;6.996;2023-07-24T08:34:39;99083.44;;;20.66;65.08
4570;BME280;2297;51.442;6.996;2023-07-24T08:37:06;99082.69;;;19.74;67.20
4570;BME280;2297;51.442;6.996;2023-07-24T08:39:32;99089.75;;;20.21;66.82
4570;BME280;2297;51.442;6.996;2023-07-24T08:41:59;99081.59;;;20.77;65.43
4570;BME280;2297;51.442;6.996;2023-07-24T08:44:28;99080.78;;;20.66;65.31
4570;BME280;2297;51.442;6.996;2023-07-24T08:46:57;99078.19;;;20.75;64.77
4570;BME280;2297;51.442;6.996;2023-07-24T08:49:25;99078.44;;;20.72;64.30
4570;BME280;2297;51.442;6.996;2023-07-24T08:51:53;99076.06;;;21.11;63.17
4570;BME280;2297;51.442;6.996;2023-07-24T08:54:21;99074.84;;;21.16;62.70
4570;BME280;2297;51.442;6.996;2023-07-24T08:56:48;99077.06;;;21.10;62.09
4570;BME280;2297;51.442;6.996;2023-07-24T08:59:17;99068.81;;;21.02;61.99
4570;BME280;2297;51.442;6.996;2023-07-24T09:01:44;99080.13;;;20.73;63.02
4570;BME280;2297;51.442;6.996;2023-07-24T09:04:10;99072.72;;;20.98;62.21
4570;BME280;2297;51.442;6.996;2023-07-24T09:06:38;99081.59;;;20.77;63.77
4570;BME280;2297;51.442;6.996;2023-07-24T09:09:12;99080.78;;;20.66;63.44
4570;BME280;2297;51.442;6.996;2023-07-24T09:11:46;99086.25;;;20.64;63.61
4570;BME280;2297;51.442;6.996;2023-07-24T09:14:20;99088.44;;;20.70;62.94
4570;BME280;2297;51.442;6.996;2023-07-24T09:16:47;99081.69;;;20.87;61.59
4570;BME280;2297;51.442;6.996;2023-07-24T09:19:17;99077.69;;;21.35;59.63
4570;BME280;2297;51.442;6.996;2023-07-24T09:21:45;99066.91;;;20.93;59.26
4570;BME280;2297;51.442;6.996;2023-07-24T09:24:13;99069.19;;;21.19;58.79
4570;BME280;2297;51.442;6.996;2023-07-24T09:26:50;99069.16;;;21.51;57.63
4570;BME280;2297;51.442;6.996;2023-07-24T09:29:17;99066.75;;;20.94;58.79
4570;BME280;2297;51.442;6.996;2023-07-24T09:31:44;99068.03;;;21.33;58.45
4570;BME280;2297;51.442;6.996;2023-07-24T09:34:17;99069.13;;;21.41;57.08
4570;BME280;2297;51.442;6.996;2023-07-24T09:36:46;99071.31;;;21.57;57.17
4570;BME280;2297;51.442;6.996;2023-07-24T09:39:12;99065.69;;;21.39;58.02
4570;BME280;2297;51.442;6.996;2023-07-24T09:41:39;99067.75;;;21.15;58.40
4570;BME280;2297;51.442;6.996;2023-07-24T09:44:06;99066.78;;;21.16;58.88
4570;BME280;2297;51.442;6.996;2023-07-24T09:46:34;99061.22;;;21.07;59.27
4570;BME280;2297;51.442;6.996;2023-07-24T09:49:03;99059.66;;;21.26;58.93
4570;BME280;2297;51.442;6.996;2023-07-24T09:51:29;99055.06;;;21.59;57.98
4570;BME280;2297;51.442;6.996;2023-07-24T09:54:04;99057.00;;;21.78;57.60
4570;BME280;2297;51.442;6.996;2023-07-24T09:56:32;99048.78;;;21.49;58.31
4570;BME280;2297;51.442;6.996;2023-07-24T09:59:00;99045.59;;;21.55;58.11
4570;BME280;2297;51.442;6.996;2023-07-24T10:01:30;99039.94;;;21.16;58.37
4570;BME280;2297;51.442;6.996;2023-07-24T10:03:58;99038.78;;;21.51;58.53
4570;BME280;2297;51.442;6.996;2023-07-24T10:06:41;99038.41;;;21.65;58.42
4570;BME280;2297;51.442;6.996;2023-07-24T10:09:11;99029.81;;;21.40;58.42
4570;BME280;2297;51.442;6.996;2023-07-24T10:11:38;99029.00;;;21.81;57.77
4570;BME280;2297;51.442;6.996;2023-07-24T10:14:05;99038.41;;;21.65;58.43
4570;BME280;2297;51.442;6.996;2023-07-24T10:16:32;99043.78;;;21.65;58.43
4570;BME280;2297;51.442;6.996;2023-07-24T10:18:59;99032.22;;;21.74;58.19
4570;BME280;2297;51.442;6.996;2023-07-24T10:21:27;99012.09;;;21.59;58.45
4570;BME280;2297;51.442;6.996;2023-07-24T10:23:54;99011.44;;;22.07;57.83
4570;BME280;2297;51.442;6.996;2023-07-24T10:26:26;99006.97;;;22.37;57.39
4570;BME280;2297;51.442;6.996;2023-07-24T10:28:54;99015.19;;;22.46;57.21
4570;BME280;2297;51.442;6.996;2023-07-24T10:31:22;99006.09;;;22.27;57.40
4570;BME280;2297;51.442;6.996;2023-07-24T10:33:51;99005.84;;;22.50;56.97
4570;BME280;2297;51.442;6.996;2023-07-24T10:36:19;99011.78;;;22.63;56.89
4570;BME280;2297;51.442;6.996;2023-07-24T10:38:52;99019.44;;;22.38;55.83
4570;BME280;2297;51.442;6.996;2023-07-24T10:41:19;99023.41;;;22.64;55.58
4570;BME280;2297;51.442;6.996;2023-07-24T10:43:48;99007.00;;;21.97;56.12
4570;BME280;2297;51.442;6.996;2023-07-24T10:46:17;99009.91;;;22.34;55.50
4570;BME280;2297;51.442;6.996;2023-07-24T10:48:45;99017.00;;;22.65;54.72
4570;BME280;2297;51.442;6.996;2023-07-24T10:51:12;99027.06;;;22.33;55.80
4570;BME280;2297;51.442;6.996;2023-07-24T10:53:43;99021.63;;;22.14;55.50
4570;BME280;2297;51.442;6.996;2023-07-24T10:56:10;99011.19;;;22.30;55.54
4570;BME280;2297;51.442;6.996;2023-07-24T10:58:37;99018.06;;;22.03;55.74
4570;BME280;2297;51.442;6.996;2023-07-24T11:01:06;99007.81;;;22.28;55.54
4570;BME280;2297;51.442;6.996;2023-07-24T11:03:35;99007.38;;;22.62;55.65
4570;BME280;2297;51.442;6.996;2023-07-24T11:06:03;99011.09;;;21.91;56.41
4570;BME280;2297;51.442;6.996;2023-07-24T11:08:30;99004.09;;;22.09;56.25
4570;BME280;2297;51.442;6.996;2023-07-24T11:10:58;98998.19;;;22.25;55.68
4570;BME280;2297;51.442;6.996;2023-07-24T11:13:27;98994.22;;;22.30;55.52
4570;BME280;2297;51.442;6.996;2023-07-24T11:15:55;99001.31;;;22.31;55.22
4570;BME280;2297;51.442;6.996;2023-07-24T11:18:23;98990.53;;;22.31;55.23
4570;BME280;2297;51.442;6.996;2023-07-24T11:20:54;98985.44;;;22.37;55.66
4570;BME280;2297;51.442;6.996;2023-07-24T11:23:21;98981.63;;;22.40;56.19
4570;BME280;2297;51.442;6.996;2023-07-24T11:25:50;98976.09;;;22.22;56.43
4570;BME280;2297;51.442;6.996;2023-07-24T11:28:18;98969.56;;;22.05;57.01
4570;BME280;2297;51.442;6.996;2023-07-24T11:30:44;98990.41;;;21.82;57.12
4570;BME280;2297;51.442;6.996;2023-07-24T11:33:13;99001.09;;;21.72;58.08
4570;BME280;2297;51.442;6.996;2023-07-24T11:35:42;98998.97;;;21.35;59.54
4570;BME280;2297;51.442;6.996;2023-07-24T11:38:10;98982.50;;;21.28;59.92
4570;BME280;2297;51.442;6.996;2023-07-24T11:40:38;98988.47;;;21.32;60.70
4570;BME280;2297;51.442;6.996;2023-07-24T11:43:15;98991.13;;;21.22;61.99
4570;BME280;2297;51.442;6.996;2023-07-24T11:45:42;99008.34;;;20.98;62.76
4570;BME280;2297;51.442;6.996;2023-07-24T11:48:10;99036.78;;;20.57;64.01
4570;BME280;2297;51.442;6.996;2023-07-24T11:50:43;99045.66;;;19.68;75.28
4570;BME280;2297;51.442;6.996;2023-07-24T11:53:19;99042.59;;;19.03;81.10
4570;BME280;2297;51.442;6.996;2023-07-24T11:55:49;99072.72;;;18.94;75.47
4570;BME280;2297;51.442;6.996;2023-07-24T11:58:16;99069.34;;;18.43;76.09
4570;BME280;2297;51.442;6.996;2023-07-24T12:00:43;99048.13;;;18.16;75.17
4570;BME280;2297;51.442;6.996;2023-07-24T12:03:10;99041.78;;;18.30;75.75
4570;BME280;2297;51.442;6.996;2023-07-24T12:05:40;99028.72;;;18.01;74.73
4570;BME280;2297;51.442;6.996;2023-07-24T12:08:09;99018.78;;;18.03;73.71
4570;BME280;2297;51.442;6.996;2023-07-24T12:10:37;98997.69;;;18.49;75.87
4570;BME280;2297;51.442;6.996;2023-07-24T12:13:05;99002.25;;;18.71;76.52
4570;BME280;2297;51.442;6.996;2023-07-24T12:15:32;98999.31;;;18.62;74.88
4570;BME280;2297;51.442;6.996;2023-07-24T12:18:00;98991.59;;;18.82;75.51
4570;BME280;2297;51.442;6.996;2023-07-24T12:20:27;99007.78;;;18.81;74.41
4570;BME280;2297;51.442;6.996;2023-07-24T12:22:54;99014.84;;;18.82;72.31
4570;BME280;2297;51.442;6.996;2023-07-24T12:25:23;99018.47;;;18.81;70.40
4570;BME280;2297;51.442;6.996;2023-07-24T12:27:50;99009.16;;;18.98;70.85
4570;BME280;2297;51.442;6.996;2023-07-24T12:30:17;99015.94;;;19.49;71.31
4570;BME280;2297;51.442;6.996;2023-07-24T12:32:44;99024.47;;;19.88;69.57
4570;BME280;2297;51.442;6.996;2023-07-24T12:35:11;99022.31;;;19.93;68.14
4570;BME280;2297;51.442;6.996;2023-07-24T12:37:37;99039.91;;;19.50;65.90
4570;BME280;2297;51.442;6.996;2023-07-24T12:40:06;99041.28;;;19.67;66.65
4570;BME280;2297;51.442;6.996;2023-07-24T12:42:34;99040.56;;;19.65;66.01
4570;BME280;2297;51.442;6.996;2023-07-24T12:45:01;99030.78;;;19.75;65.69
4570;BME280;2297;51.442;6.996;2023-07-24T12:47:29;99034.47;;;19.63;62.90
4570;BME280;2297;51.442;6.996;2023-07-24T12:49:55;99016.91;;;19.70;63.89
4570;BME280;2297;51.442;6.996;2023-07-24T12:52:23;99030.06;;;19.85;64.15
4570;BME280;2297;51.442;6.996;2023-07-24T12:54:49;99006.44;;;20.13;61.33
4570;BME280;2297;51.442;6.996;2023-07-24T12:57:16;98993.88;;;20.57;61.41
4570;BME280;2297;51.442;6.996;2023-07-24T12:59:44;98996.41;;;20.91;58.94
4570;BME280;2297;51.442;6.996;2023-07-24T13:02:11;98993.03;;;21.10;59.12
4570;BME280;2297;51.442;6.996;2023-07-24T13:04:37;98997.41;;;21.63;59.94
4570;BME280;2297;51.442;6.996;2023-07-24T13:07:04;98991.38;;;21.81;58.50
4570;BME280;2297;51.442;6.996;2023-07-24T13:09:31;98988.13;;;22.18;59.00
4570;BME280;2297;51.442;6.996;2023-07-24T13:11:58;98983.63;;;21.97;56.23
4570;BME280;2297;51.442;6.996;2023-07-24T13:14:24;98972.06;;;21.97;56.13
4570;BME280;2297;51.442;6.996;2023-07-24T13:16:52;98970.13;;;22.18;55.33
4570;BME280;2297;51.442;6.996;2023-07-24T13:19:19;98967.34;;;22.49;54.96
4570;BME280;2297;51.442;6.996;2023-07-24T13:21:46;98974.69;;;22.67;54.87
4570;BME280;2297;51.442;6.996;2023-07-24T13:24:12;98967.91;;;22.72;55.19
4570;BME280;2297;51.442;6.996;2023-07-24T13:26:39;98969.63;;;22.73;55.69